createdAt,value
2018-08-04T00:00:42.081Z,0.00
2018-08-04T00:01:42.122Z,0.00
2018-08-04T00:02:42.163Z,0.00
2018-08-04T00:03:42.210Z,0.00
2018-08-04T00:04:42.246Z,0.00
2018-08-04T00:05:42.289Z,0.00
2018-08-04T00:06:42.329Z,0.00
2018-08-04T00:07:42.373Z,0.00
2018-08-04T00:08:42.412Z,0.00
2018-08-04T00:09:42.454Z,0.00
2018-08-04T00:10:42.494Z,0.00
2018-08-04T00:11:42.539Z,0.00
2018-08-04T00:12:42.580Z,0.00
2018-08-04T00:13:42.620Z,0.00
2018-08-04T00:14:42.659Z,0.00
2018-08-04T00:15:42.700Z,0.00
2018-08-04T00:16:42.741Z,0.00
2018-08-04T00:17:42.790Z,0.00
2018-08-04T00:18:42.825Z,0.00
2018-08-04T00:19:42.865Z,0.00
2018-08-04T00:20:42.907Z,0.00
2018-08-04T00:21:42.949Z,0.00
2018-08-04T00:22:42.992Z,0.00
2018-08-04T00:23:43.030Z,0.00
2018-08-04T00:24:43.086Z,0.00
2018-08-04T00:25:43.113Z,0.00
2018-08-04T00:26:43.152Z,0.00
2018-08-04T00:27:43.204Z,0.00
2018-08-04T00:28:43.240Z,0.00
2018-08-04T00:29:43.279Z,0.00
2018-08-04T00:30:43.318Z,0.00
2018-08-04T00:31:43.369Z,0.00
2018-08-04T00:32:43.403Z,0.00
2018-08-04T00:33:43.444Z,0.00
2018-08-04T00:34:43.485Z,0.00
2018-08-04T00:35:43.525Z,0.00
2018-08-04T00:36:43.566Z,0.00
2018-08-04T00:37:43.609Z,0.00
2018-08-04T00:38:43.648Z,0.00
2018-08-04T00:39:43.692Z,0.00
2018-08-04T00:40:43.731Z,0.00
2018-08-04T00:41:43.777Z,0.00
2018-08-04T00:42:43.812Z,0.00
2018-08-04T00:43:43.863Z,0.00
2018-08-04T00:44:43.895Z,0.00
2018-08-04T00:45:43.937Z,0.00
2018-08-04T00:46:43.977Z,0.00
2018-08-04T00:47:44.017Z,0.00
2018-08-04T00:48:44.060Z,0.00
2018-08-04T00:49:44.100Z,0.00
2018-08-04T00:50:44.142Z,0.00
2018-08-04T00:51:44.182Z,0.00
2018-08-04T00:52:44.223Z,0.00
2018-08-04T00:53:44.267Z,0.00
2018-08-04T00:54:44.306Z,0.00
2018-08-04T00:55:44.348Z,0.00
2018-08-04T00:56:44.390Z,0.00
2018-08-04T00:57:44.431Z,0.00
2018-08-04T00:58:44.475Z,0.00
2018-08-04T00:59:44.513Z,0.00
2018-08-04T01:00:44.555Z,0.00
2018-08-04T01:01:44.595Z,0.00
2018-08-04T01:02:44.636Z,0.00
2018-08-04T01:03:44.678Z,0.00
2018-08-04T01:04:44.717Z,0.00
2018-08-04T01:05:44.758Z,0.00
2018-08-04T01:06:44.800Z,0.00
2018-08-04T01:07:44.842Z,0.00
2018-08-04T01:08:44.883Z,0.00
2018-08-04T01:09:44.924Z,0.00
2018-08-04T01:10:44.967Z,0.00
2018-08-04T01:11:45.004Z,0.00
2018-08-04T01:12:45.045Z,0.00
2018-08-04T01:13:45.101Z,0.00
2018-08-04T01:14:45.125Z,0.00
2018-08-04T01:15:45.178Z,0.00
2018-08-04T01:16:45.210Z,0.00
2018-08-04T01:17:45.249Z,0.00
2018-08-04T01:18:45.290Z,0.00
2018-08-04T01:19:45.332Z,0.00
2018-08-04T01:20:45.372Z,0.00
2018-08-04T01:21:45.412Z,0.00
2018-08-04T01:22:45.457Z,0.00
2018-08-04T01:23:45.496Z,0.00
2018-08-04T01:24:45.536Z,0.00
2018-08-04T01:25:45.576Z,0.00
2018-08-04T01:26:45.616Z,0.00
2018-08-04T01:27:45.658Z,0.00
2018-08-04T01:28:45.710Z,0.00
2018-08-04T01:29:45.741Z,0.00
2018-08-04T01:30:45.784Z,0.00
2018-08-04T01:31:45.821Z,0.00
2018-08-04T01:32:45.862Z,0.00
2018-08-04T01:33:45.905Z,0.00
2018-08-04T01:34:45.944Z,0.00
2018-08-04T01:35:45.986Z,0.00
2018-08-04T01:36:46.027Z,0.00
2018-08-04T01:37:46.068Z,0.00
2018-08-04T01:38:46.108Z,0.00
2018-08-04T01:39:46.150Z,0.00
2018-08-04T01:40:46.191Z,0.00
2018-08-04T01:41:46.237Z,0.00
2018-08-04T01:42:46.271Z,0.00
2018-08-04T01:43:46.313Z,0.00
2018-08-04T01:44:46.352Z,0.00
2018-08-04T01:45:46.394Z,0.00
2018-08-04T01:46:46.439Z,0.00
2018-08-04T01:47:46.474Z,0.00
2018-08-04T01:48:46.524Z,0.00
2018-08-04T01:49:46.558Z,0.00
2018-08-04T01:50:46.598Z,0.00
2018-08-04T01:51:46.637Z,0.00
2018-08-04T01:52:46.680Z,0.00
2018-08-04T01:53:46.770Z,0.00
2018-08-04T01:54:46.762Z,0.00
2018-08-04T01:55:46.802Z,0.00
2018-08-04T01:56:46.842Z,0.00
2018-08-04T01:57:46.885Z,0.00
2018-08-04T01:58:46.923Z,0.00
2018-08-04T01:59:46.966Z,0.00
2018-08-04T02:00:47.009Z,0.00
2018-08-04T02:01:47.046Z,0.00
2018-08-04T02:02:47.086Z,0.00
2018-08-04T02:03:47.128Z,0.00
2018-08-04T02:04:47.169Z,0.00
2018-08-04T02:05:47.211Z,0.00
2018-08-04T02:06:47.249Z,0.00
2018-08-04T02:07:47.291Z,0.00
2018-08-04T02:08:47.329Z,0.00
2018-08-04T02:09:47.370Z,0.00
2018-08-04T02:10:47.411Z,0.00
2018-08-04T02:11:47.461Z,0.00
2018-08-04T02:12:47.491Z,0.00
2018-08-04T02:13:47.541Z,0.00
2018-08-04T02:14:47.577Z,0.00
2018-08-04T02:15:47.613Z,0.00
2018-08-04T02:16:47.656Z,0.00
2018-08-04T02:17:47.697Z,0.00
2018-08-04T02:18:47.734Z,0.00
2018-08-04T02:19:47.776Z,0.00
2018-08-04T02:20:47.817Z,0.00
2018-08-04T02:21:47.860Z,0.00
2018-08-04T02:22:47.896Z,0.00
2018-08-04T02:23:47.936Z,0.00
2018-08-04T02:24:47.979Z,0.00
2018-08-04T02:25:48.020Z,0.00
2018-08-04T02:26:48.066Z,0.00
2018-08-04T02:27:48.098Z,0.00
2018-08-04T02:28:48.142Z,0.00
2018-08-04T02:29:48.184Z,0.00
2018-08-04T02:30:48.223Z,0.00
2018-08-04T02:31:48.264Z,0.00
2018-08-04T02:32:48.303Z,0.00
2018-08-04T02:33:48.345Z,0.00
2018-08-04T02:34:48.386Z,0.00
2018-08-04T02:35:48.425Z,0.00
2018-08-04T02:36:48.465Z,0.00
2018-08-04T02:37:48.506Z,0.00
2018-08-04T02:38:48.547Z,0.00
2018-08-04T02:39:48.637Z,0.00
2018-08-04T02:40:48.627Z,0.00
2018-08-04T02:41:48.668Z,0.00
2018-08-04T02:42:48.709Z,0.00
2018-08-04T02:43:48.747Z,0.00
2018-08-04T02:44:48.788Z,0.00
2018-08-04T02:45:48.829Z,0.00
2018-08-04T02:46:48.869Z,0.00
2018-08-04T02:47:48.909Z,0.00
2018-08-04T02:48:48.949Z,0.00
2018-08-04T02:49:48.993Z,0.00
2018-08-04T02:50:49.034Z,0.00
2018-08-04T02:51:49.071Z,0.00
2018-08-04T02:52:49.114Z,0.00
2018-08-04T02:53:49.159Z,0.00
2018-08-04T02:54:49.192Z,0.00
2018-08-04T02:55:49.233Z,0.00
2018-08-04T02:56:49.274Z,0.00
2018-08-04T02:57:49.314Z,0.00
2018-08-04T02:58:49.356Z,0.00
2018-08-04T02:59:49.395Z,0.00
2018-08-04T03:00:49.436Z,0.00
2018-08-04T03:01:49.479Z,0.00
2018-08-04T03:02:49.515Z,0.00
2018-08-04T03:03:49.571Z,0.00
2018-08-04T03:04:49.598Z,0.00
2018-08-04T03:05:49.672Z,0.00
2018-08-04T03:06:49.678Z,0.00
2018-08-04T03:07:49.718Z,4.00
2018-08-04T03:08:49.758Z,4.00
2018-08-04T03:09:49.807Z,4.00
2018-08-04T03:10:49.838Z,0.00
2018-08-04T03:11:49.878Z,4.00
2018-08-04T03:12:49.920Z,4.00
2018-08-04T03:13:49.957Z,0.00
2018-08-04T03:14:50.001Z,4.00
2018-08-04T03:15:50.039Z,4.00
2018-08-04T03:16:50.083Z,4.00
2018-08-04T03:17:50.119Z,4.00
2018-08-04T03:18:50.159Z,4.00
2018-08-04T03:19:50.200Z,8.00
2018-08-04T03:20:50.240Z,8.00
2018-08-04T03:21:50.281Z,12.00
2018-08-04T03:22:50.321Z,16.00
2018-08-04T03:23:50.361Z,16.00
2018-08-04T03:24:50.402Z,16.00
2018-08-04T03:25:50.441Z,20.00
2018-08-04T03:26:50.482Z,24.00
2018-08-04T03:27:50.523Z,28.00
2018-08-04T03:28:50.561Z,28.00
2018-08-04T03:29:50.601Z,36.00
2018-08-04T03:30:50.643Z,40.00
2018-08-04T03:31:50.681Z,48.00
2018-08-04T03:32:50.722Z,52.00
2018-08-04T03:33:50.815Z,60.00
2018-08-04T03:34:50.803Z,68.00
2018-08-04T03:35:50.846Z,76.00
2018-08-04T03:36:50.891Z,88.00
2018-08-04T03:37:50.924Z,100.00
2018-08-04T03:38:50.964Z,108.00
2018-08-04T03:39:51.012Z,120.00
2018-08-04T03:40:51.046Z,136.00
2018-08-04T03:41:51.089Z,148.00
2018-08-04T03:42:51.124Z,168.00
2018-08-04T03:43:51.165Z,184.00
2018-08-04T03:44:51.204Z,200.00
2018-08-04T03:45:51.244Z,220.00
2018-08-04T03:46:51.284Z,240.00
2018-08-04T03:47:51.332Z,256.00
2018-08-04T03:48:51.366Z,280.00
2018-08-04T03:49:51.407Z,308.00
2018-08-04T03:50:51.446Z,332.00
2018-08-04T03:51:51.486Z,356.00
2018-08-04T03:52:51.526Z,384.00
2018-08-04T03:53:51.566Z,416.00
2018-08-04T03:54:51.607Z,444.00
2018-08-04T03:55:51.646Z,480.00
2018-08-04T03:56:51.691Z,512.00
2018-08-04T03:57:51.728Z,548.00
2018-08-04T03:58:51.772Z,584.00
2018-08-04T03:59:51.806Z,624.00
2018-08-04T04:00:51.848Z,668.00
2018-08-04T04:01:51.886Z,708.00
2018-08-04T04:02:51.928Z,756.00
2018-08-04T04:03:51.966Z,808.00
2018-08-04T04:04:52.008Z,860.00
2018-08-04T04:05:52.058Z,916.00
2018-08-04T04:06:52.089Z,968.00
2018-08-04T04:07:52.130Z,1028.00
2018-08-04T04:08:52.178Z,1084.00
2018-08-04T04:09:52.210Z,1144.00
2018-08-04T04:10:52.256Z,1204.00
2018-08-04T04:11:52.289Z,1264.00
2018-08-04T04:12:52.329Z,1328.00
2018-08-04T04:13:52.376Z,1392.00
2018-08-04T04:14:52.410Z,1460.00
2018-08-04T04:15:52.451Z,1528.00
2018-08-04T04:16:52.488Z,1596.00
2018-08-04T04:17:52.530Z,1668.00
2018-08-04T04:18:52.569Z,1740.00
2018-08-04T04:19:52.611Z,1816.00
2018-08-04T04:20:52.649Z,1892.00
2018-08-04T04:21:52.692Z,1976.00
2018-08-04T04:22:52.731Z,2052.00
2018-08-04T04:23:52.770Z,2136.00
2018-08-04T04:24:52.812Z,2208.00
2018-08-04T04:25:52.853Z,2280.00
2018-08-04T04:26:52.891Z,2352.00
2018-08-04T04:27:52.932Z,2428.00
2018-08-04T04:28:52.974Z,2508.00
2018-08-04T04:29:53.024Z,2592.00
2018-08-04T04:30:53.052Z,2680.00
2018-08-04T04:31:53.095Z,2764.00
2018-08-04T04:32:53.134Z,2852.00
2018-08-04T04:33:53.184Z,2928.00
2018-08-04T04:34:53.215Z,3008.00
2018-08-04T04:35:53.257Z,3088.00
2018-08-04T04:36:53.354Z,3160.00
2018-08-04T04:37:53.340Z,3236.00
2018-08-04T04:38:53.377Z,3320.00
2018-08-04T04:39:53.415Z,3404.00
2018-08-04T04:40:53.459Z,3488.00
2018-08-04T04:41:53.499Z,3568.00
2018-08-04T04:42:53.540Z,3648.00
2018-08-04T04:43:53.577Z,3716.00
2018-08-04T04:44:53.619Z,3780.00
2018-08-04T04:45:53.659Z,3832.00
2018-08-04T04:46:53.698Z,3888.00
2018-08-04T04:47:53.738Z,3940.00
2018-08-04T04:48:53.783Z,3996.00
2018-08-04T04:49:53.824Z,4072.00
2018-08-04T04:50:53.858Z,4148.00
2018-08-04T04:51:53.900Z,4216.00
2018-08-04T04:52:53.940Z,4284.00
2018-08-04T04:53:53.982Z,4356.00
2018-08-04T04:54:54.024Z,4424.00
2018-08-04T04:55:54.063Z,4504.00
2018-08-04T04:56:54.104Z,4596.00
2018-08-04T04:57:54.143Z,4692.00
2018-08-04T04:58:54.184Z,4788.00
2018-08-04T04:59:54.225Z,4888.00
2018-08-04T05:00:54.265Z,4984.00
2018-08-04T05:01:54.310Z,5080.00
2018-08-04T05:02:54.347Z,5180.00
2018-08-04T05:03:54.387Z,5268.00
2018-08-04T05:04:54.429Z,5344.00
2018-08-04T05:05:54.469Z,5412.00
2018-08-04T05:06:54.508Z,5480.00
2018-08-04T05:07:54.547Z,5560.00
2018-08-04T05:08:54.589Z,5640.00
2018-08-04T05:09:54.637Z,5716.00
2018-08-04T05:10:54.670Z,5800.00
2018-08-04T05:11:54.711Z,5892.00
2018-08-04T05:12:54.753Z,5984.00
2018-08-04T05:13:54.793Z,6096.00
2018-08-04T05:14:54.831Z,6212.00
2018-08-04T05:15:54.871Z,6316.00
2018-08-04T05:16:54.914Z,6416.00
2018-08-04T05:17:55.006Z,6516.00
2018-08-04T05:18:54.993Z,6620.00
2018-08-04T05:19:55.034Z,6708.00
2018-08-04T05:20:55.075Z,6792.00
2018-08-04T05:21:55.121Z,6872.00
2018-08-04T05:22:55.162Z,6928.00
2018-08-04T05:23:55.197Z,6980.00
2018-08-04T05:24:55.239Z,7032.00
2018-08-04T05:25:55.281Z,7104.00
2018-08-04T05:26:55.321Z,7172.00
2018-08-04T05:27:55.363Z,7232.00
2018-08-04T05:28:55.402Z,7272.00
2018-08-04T05:29:55.445Z,7308.00
2018-08-04T05:30:55.484Z,7348.00
2018-08-04T05:31:55.608Z,7388.00
2018-08-04T05:32:55.567Z,7440.00
2018-08-04T05:33:55.607Z,7500.00
2018-08-04T05:34:55.649Z,7572.00
2018-08-04T05:35:55.690Z,7648.00
2018-08-04T05:36:55.737Z,7728.00
2018-08-04T05:37:55.773Z,7792.00
2018-08-04T05:38:55.813Z,7828.00
2018-08-04T05:39:55.855Z,7856.00
2018-08-04T05:40:55.896Z,7880.00
2018-08-04T05:41:55.937Z,7932.00
2018-08-04T05:42:55.977Z,8040.00
2018-08-04T05:43:56.022Z,8172.00
2018-08-04T05:44:56.060Z,8300.00
2018-08-04T05:45:56.102Z,8384.00
2018-08-04T05:46:56.144Z,8400.00
2018-08-04T05:47:56.184Z,8388.00
2018-08-04T05:48:56.228Z,8380.00
2018-08-04T05:49:56.316Z,8360.00
2018-08-04T05:50:56.308Z,8344.00
2018-08-04T05:51:56.349Z,8320.00
2018-08-04T05:52:56.391Z,8288.00
2018-08-04T05:53:56.434Z,8272.00
2018-08-04T05:54:56.484Z,8292.00
2018-08-04T05:55:56.515Z,8344.00
2018-08-04T05:56:56.560Z,8400.00
2018-08-04T05:57:56.663Z,8468.00
2018-08-04T05:58:56.639Z,8532.00
2018-08-04T05:59:56.682Z,8592.00
2018-08-04T06:00:56.724Z,8644.00
2018-08-04T06:01:56.765Z,8692.00
2018-08-04T06:02:56.827Z,8732.00
2018-08-04T06:03:56.845Z,8768.00
2018-08-04T06:04:56.892Z,8784.00
2018-08-04T06:05:56.940Z,8800.00
2018-08-04T06:06:56.970Z,8792.00
2018-08-04T06:07:57.014Z,8768.00
2018-08-04T06:08:57.058Z,8748.00
2018-08-04T06:09:57.097Z,8768.00
2018-08-04T06:10:57.136Z,8836.00
2018-08-04T06:11:57.183Z,8920.00
2018-08-04T06:12:57.221Z,9020.00
2018-08-04T06:13:57.263Z,9084.00
2018-08-04T06:14:57.306Z,9120.00
2018-08-04T06:15:57.349Z,9132.00
2018-08-04T06:16:57.389Z,9148.00
2018-08-04T06:17:57.430Z,9156.00
2018-08-04T06:18:57.523Z,9156.00
2018-08-04T06:19:57.515Z,9128.00
2018-08-04T06:20:57.557Z,9108.00
2018-08-04T06:21:57.628Z,9084.00
2018-08-04T06:22:57.642Z,9056.00
2018-08-04T06:23:57.681Z,9004.00
2018-08-04T06:24:57.724Z,8988.00
2018-08-04T06:25:57.768Z,9012.00
2018-08-04T06:26:57.809Z,9064.00
2018-08-04T06:27:57.851Z,9132.00
2018-08-04T06:28:57.895Z,9204.00
2018-08-04T06:29:57.936Z,9268.00
2018-08-04T06:30:57.977Z,9348.00
2018-08-04T06:31:58.020Z,9428.00
2018-08-04T06:32:58.065Z,9500.00
2018-08-04T06:33:58.109Z,9556.00
2018-08-04T06:34:58.146Z,9604.00
2018-08-04T06:35:58.189Z,9640.00
2018-08-04T06:36:58.233Z,9656.00
2018-08-04T06:37:58.278Z,9652.00
2018-08-04T06:38:58.317Z,9652.00
2018-08-04T06:39:58.359Z,9664.00
2018-08-04T06:40:58.402Z,9696.00
2018-08-04T06:41:58.443Z,9744.00
2018-08-04T06:42:58.488Z,9792.00
2018-08-04T06:43:58.528Z,9844.00
2018-08-04T06:44:58.572Z,9884.00
2018-08-04T06:45:58.619Z,9916.00
2018-08-04T06:46:58.658Z,9960.00
2018-08-04T06:47:58.701Z,10000.00
2018-08-04T06:48:58.744Z,10016.00
2018-08-04T06:49:58.785Z,10008.00
2018-08-04T06:50:58.828Z,9976.00
2018-08-04T06:51:58.870Z,9940.00
2018-08-04T06:52:58.937Z,9916.00
2018-08-04T06:53:58.959Z,9884.00
2018-08-04T06:54:59.002Z,9864.00
2018-08-04T06:55:59.044Z,9844.00
2018-08-04T06:56:59.087Z,9812.00
2018-08-04T06:57:59.131Z,9780.00
2018-08-04T06:58:59.172Z,9740.00
2018-08-04T06:59:59.214Z,9696.00
2018-08-04T07:00:59.256Z,9652.00
2018-08-04T07:01:59.300Z,9608.00
2018-08-04T07:02:59.345Z,9576.00
2018-08-04T07:03:59.387Z,9560.00
2018-08-04T07:04:59.428Z,9576.00
2018-08-04T07:05:59.473Z,9604.00
2018-08-04T07:06:59.515Z,9652.00
2018-08-04T07:07:59.559Z,9708.00
2018-08-04T07:08:59.601Z,9768.00
2018-08-04T07:09:59.642Z,9824.00
2018-08-04T07:10:59.685Z,9868.00
2018-08-04T07:11:59.733Z,9900.00
2018-08-04T07:12:59.849Z,9920.00
2018-08-04T07:13:59.816Z,9928.00
2018-08-04T07:14:59.859Z,9936.00
2018-08-04T07:15:59.905Z,9948.00
2018-08-04T07:16:59.946Z,9964.00
2018-08-04T07:17:59.997Z,9972.00
2018-08-04T07:19:00.032Z,9984.00
2018-08-04T07:20:00.075Z,10000.00
2018-08-04T07:21:00.128Z,10000.00
2018-08-04T07:22:01.273Z,10000.00
2018-08-04T07:23:00.227Z,9984.00
2018-08-04T07:24:00.251Z,9976.00
2018-08-04T07:25:00.294Z,10008.00
2018-08-04T07:26:00.337Z,10068.00
2018-08-04T07:27:00.379Z,10164.00
2018-08-04T07:28:00.425Z,10260.00
2018-08-04T07:29:00.522Z,10328.00
2018-08-04T07:30:00.519Z,10344.00
2018-08-04T07:31:00.554Z,10352.00
2018-08-04T07:32:00.601Z,10376.00
2018-08-04T07:33:00.650Z,10420.00
2018-08-04T07:34:00.685Z,10472.00
2018-08-04T07:35:00.728Z,10532.00
2018-08-04T07:36:00.776Z,10576.00
2018-08-04T07:37:00.994Z,10600.00
2018-08-04T07:38:00.859Z,10644.00
2018-08-04T07:39:00.910Z,10680.00
2018-08-04T07:40:00.946Z,10672.00
2018-08-04T07:41:01.061Z,10656.00
2018-08-04T07:42:01.140Z,10640.00
2018-08-04T07:43:01.077Z,10668.00
2018-08-04T07:44:01.122Z,10816.00
2018-08-04T07:45:01.173Z,11176.00
2018-08-04T07:46:01.213Z,11724.00
2018-08-04T07:47:01.256Z,12208.00
2018-08-04T07:48:01.302Z,12452.00
2018-08-04T07:49:01.390Z,12160.00
2018-08-04T07:50:01.399Z,11520.00
2018-08-04T07:51:01.431Z,10976.00
2018-08-04T07:52:01.474Z,10552.00
2018-08-04T07:53:01.518Z,10312.00
2018-08-04T07:54:01.581Z,10400.00
2018-08-04T07:55:01.615Z,10624.00
2018-08-04T07:56:01.651Z,10928.00
2018-08-04T07:57:01.697Z,11116.00
2018-08-04T07:58:01.744Z,11272.00
2018-08-04T07:59:01.781Z,11252.00
2018-08-04T08:00:01.836Z,11088.00
2018-08-04T08:01:02.008Z,10928.00
2018-08-04T08:02:01.919Z,10824.00
2018-08-04T08:03:01.962Z,10780.00
2018-08-04T08:04:02.006Z,10760.00
2018-08-04T08:05:02.119Z,10732.00
2018-08-04T08:06:02.103Z,10716.00
2018-08-04T08:07:02.142Z,10696.00
2018-08-04T08:08:02.182Z,10684.00
2018-08-04T08:09:02.236Z,10680.00
2018-08-04T08:10:02.272Z,10660.00
2018-08-04T08:11:02.347Z,10628.00
2018-08-04T08:12:02.364Z,10592.00
2018-08-04T08:13:02.404Z,10576.00
2018-08-04T08:14:02.449Z,10596.00
2018-08-04T08:15:02.492Z,10644.00
2018-08-04T08:16:02.537Z,10700.00
2018-08-04T08:17:02.582Z,10776.00
2018-08-04T08:18:02.627Z,10872.00
2018-08-04T08:19:02.683Z,10984.00
2018-08-04T08:20:02.719Z,11088.00
2018-08-04T08:21:02.766Z,11204.00
2018-08-04T08:22:02.823Z,11324.00
2018-08-04T08:23:02.851Z,11464.00
2018-08-04T08:24:02.896Z,11612.00
2018-08-04T08:25:02.945Z,11764.00
2018-08-04T08:26:02.986Z,11916.00
2018-08-04T08:27:03.031Z,12120.00
2018-08-04T08:28:03.078Z,12364.00
2018-08-04T08:29:03.122Z,12640.00
2018-08-04T08:30:03.172Z,12960.00
2018-08-04T08:31:03.211Z,13272.00
2018-08-04T08:32:03.267Z,13620.00
2018-08-04T08:33:03.300Z,13976.00
2018-08-04T08:34:03.346Z,14356.00
2018-08-04T08:35:03.396Z,14760.00
2018-08-04T08:36:03.435Z,15196.00
2018-08-04T08:37:03.486Z,15660.00
2018-08-04T08:38:03.536Z,16092.00
2018-08-04T08:39:03.573Z,16476.00
2018-08-04T08:40:03.619Z,16832.00
2018-08-04T08:41:03.665Z,17184.00
2018-08-04T08:42:03.711Z,17632.00
2018-08-04T08:43:03.754Z,18048.00
2018-08-04T08:44:03.800Z,18656.00
2018-08-04T08:45:03.849Z,19200.00
2018-08-04T08:46:03.894Z,19680.00
2018-08-04T08:47:04.010Z,20032.00
2018-08-04T08:48:03.987Z,20384.00
2018-08-04T08:49:04.032Z,20736.00
2018-08-04T08:50:04.079Z,20928.00
2018-08-04T08:51:04.124Z,20896.00
2018-08-04T08:52:04.170Z,21312.00
2018-08-04T08:53:04.288Z,21824.00
2018-08-04T08:54:04.467Z,22304.00
2018-08-04T08:55:04.309Z,21952.00
2018-08-04T08:56:04.355Z,21344.00
2018-08-04T08:57:04.404Z,20608.00
2018-08-04T08:58:04.450Z,20128.00
2018-08-04T08:59:04.512Z,20064.00
2018-08-04T09:00:04.544Z,19968.00
2018-08-04T09:01:04.592Z,19712.00
2018-08-04T09:02:04.641Z,19520.00
2018-08-04T09:03:04.696Z,19552.00
2018-08-04T09:04:04.741Z,19264.00
2018-08-04T09:05:04.783Z,18624.00
2018-08-04T09:06:04.927Z,17920.00
2018-08-04T09:07:04.876Z,17536.00
2018-08-04T09:08:04.931Z,17600.00
2018-08-04T09:09:04.974Z,17664.00
2018-08-04T09:10:05.023Z,17920.00
2018-08-04T09:11:05.066Z,18144.00
2018-08-04T09:12:05.114Z,18400.00
2018-08-04T09:13:05.506Z,18560.00
2018-08-04T09:14:05.210Z,18752.00
2018-08-04T09:15:05.260Z,19008.00
2018-08-04T09:16:05.307Z,19200.00
2018-08-04T09:17:05.359Z,19360.00
2018-08-04T09:18:05.402Z,19520.00
2018-08-04T09:19:05.456Z,19712.00
2018-08-04T09:20:05.498Z,19968.00
2018-08-04T09:21:05.546Z,20224.00
2018-08-04T09:22:05.596Z,20288.00
2018-08-04T09:23:05.680Z,20352.00
2018-08-04T09:24:05.691Z,20576.00
2018-08-04T09:25:05.741Z,20832.00
2018-08-04T09:26:05.789Z,21152.00
2018-08-04T09:27:05.835Z,21024.00
2018-08-04T09:28:05.891Z,20704.00
2018-08-04T09:29:05.939Z,20224.00
2018-08-04T09:30:06.384Z,19552.00
2018-08-04T09:31:06.040Z,18944.00
2018-08-04T09:32:06.085Z,18432.00
2018-08-04T09:33:06.126Z,17952.00
2018-08-04T09:34:06.176Z,17536.00
2018-08-04T09:35:06.224Z,17120.00
2018-08-04T09:36:06.274Z,16832.00
2018-08-04T09:37:06.322Z,16576.00
2018-08-04T09:38:06.406Z,16480.00
2018-08-04T09:39:06.444Z,16576.00
2018-08-04T09:40:06.467Z,16864.00
2018-08-04T09:41:06.518Z,17280.00
2018-08-04T09:42:06.563Z,17760.00
2018-08-04T09:43:06.614Z,18080.00
2018-08-04T09:44:06.659Z,18272.00
2018-08-04T09:45:06.712Z,18144.00
2018-08-04T09:46:06.990Z,17888.00
2018-08-04T09:47:06.809Z,17728.00
2018-08-04T09:48:06.856Z,17696.00
2018-08-04T09:49:06.903Z,17568.00
2018-08-04T09:50:06.955Z,17408.00
2018-08-04T09:51:07.003Z,17600.00
2018-08-04T09:52:07.047Z,17536.00
2018-08-04T09:53:07.097Z,17824.00
2018-08-04T09:54:07.144Z,18048.00
2018-08-04T09:55:07.191Z,18144.00
2018-08-04T09:56:07.241Z,18400.00
2018-08-04T09:57:07.306Z,18560.00
2018-08-04T09:58:07.349Z,18720.00
2018-08-04T09:59:07.399Z,19008.00
2018-08-04T10:00:07.434Z,19104.00
2018-08-04T10:01:07.485Z,18912.00
2018-08-04T10:02:07.534Z,18880.00
2018-08-04T10:03:07.587Z,18944.00
2018-08-04T10:04:07.632Z,19232.00
2018-08-04T10:05:07.680Z,19456.00
2018-08-04T10:06:07.725Z,19456.00
2018-08-04T10:07:07.776Z,19424.00
2018-08-04T10:08:07.826Z,19008.00
2018-08-04T10:09:07.887Z,18944.00
2018-08-04T10:10:07.919Z,18912.00
2018-08-04T10:11:07.989Z,18432.00
2018-08-04T10:12:08.018Z,17984.00
2018-08-04T10:13:08.073Z,17504.00
2018-08-04T10:14:08.118Z,16820.00
2018-08-04T10:15:08.159Z,16608.00
2018-08-04T10:16:08.213Z,16380.00
2018-08-04T10:17:08.262Z,16348.00
2018-08-04T10:18:08.310Z,16140.00
2018-08-04T10:19:08.354Z,15948.00
2018-08-04T10:20:08.408Z,15912.00
2018-08-04T10:21:08.453Z,16056.00
2018-08-04T10:22:08.504Z,16248.00
2018-08-04T10:23:08.556Z,16308.00
2018-08-04T10:24:08.604Z,16472.00
2018-08-04T10:25:08.645Z,16632.00
2018-08-04T10:26:08.769Z,16988.00
2018-08-04T10:27:08.740Z,17280.00
2018-08-04T10:28:08.790Z,16932.00
2018-08-04T10:29:08.838Z,17280.00
2018-08-04T10:30:08.900Z,17888.00
2018-08-04T10:31:08.950Z,18624.00
2018-08-04T10:32:09.107Z,19520.00
2018-08-04T10:33:09.030Z,19968.00
2018-08-04T10:34:09.080Z,20448.00
2018-08-04T10:35:09.139Z,21024.00
2018-08-04T10:36:09.173Z,21216.00
2018-08-04T10:37:09.224Z,21120.00
2018-08-04T10:38:09.271Z,20576.00
2018-08-04T10:39:09.322Z,20000.00
2018-08-04T10:40:09.366Z,19680.00
2018-08-04T10:41:09.412Z,19488.00
2018-08-04T10:42:09.461Z,19424.00
2018-08-04T10:43:09.510Z,19488.00
2018-08-04T10:44:09.559Z,19552.00
2018-08-04T10:45:09.608Z,19776.00
2018-08-04T10:46:09.664Z,20160.00
2018-08-04T10:47:09.710Z,20352.00
2018-08-04T10:48:09.752Z,20352.00
2018-08-04T10:49:09.802Z,20384.00
2018-08-04T10:50:09.848Z,20512.00
2018-08-04T10:51:09.899Z,20384.00
2018-08-04T10:52:10.284Z,20064.00
2018-08-04T10:53:09.993Z,19808.00
2018-08-04T10:54:10.043Z,19648.00
2018-08-04T10:55:10.101Z,19424.00
2018-08-04T10:56:10.145Z,19168.00
2018-08-04T10:57:10.194Z,19008.00
2018-08-04T10:58:10.239Z,18720.00
2018-08-04T10:59:10.282Z,18496.00
2018-08-04T11:00:10.340Z,18368.00
2018-08-04T11:01:10.382Z,18368.00
2018-08-04T11:02:10.437Z,18400.00
2018-08-04T11:03:10.478Z,18208.00
2018-08-04T11:04:10.529Z,17888.00
2018-08-04T11:05:10.579Z,17568.00
2018-08-04T11:06:10.624Z,17312.00
2018-08-04T11:07:10.676Z,16928.00
2018-08-04T11:08:10.723Z,16320.00
2018-08-04T11:09:10.776Z,15756.00
2018-08-04T11:10:10.827Z,15016.00
2018-08-04T11:11:10.867Z,14468.00
2018-08-04T11:12:10.925Z,14096.00
2018-08-04T11:13:10.964Z,13576.00
2018-08-04T11:14:11.012Z,13128.00
2018-08-04T11:15:11.062Z,12752.00
2018-08-04T11:16:11.109Z,12428.00
2018-08-04T11:17:11.168Z,12412.00
2018-08-04T11:18:11.292Z,12628.00
2018-08-04T11:19:11.263Z,12764.00
2018-08-04T11:20:11.306Z,13044.00
2018-08-04T11:21:11.356Z,12688.00
2018-08-04T11:22:11.403Z,11772.00
2018-08-04T11:23:11.451Z,11672.00
2018-08-04T11:24:11.617Z,11408.00
2018-08-04T11:25:11.579Z,11100.00
2018-08-04T11:26:11.591Z,10764.00
2018-08-04T11:27:11.642Z,10384.00
2018-08-04T11:28:11.685Z,9952.00
2018-08-04T11:29:11.732Z,9420.00
2018-08-04T11:30:11.784Z,9248.00
2018-08-04T11:31:11.829Z,9048.00
2018-08-04T11:32:11.882Z,9080.00
2018-08-04T11:33:11.927Z,9228.00
2018-08-04T11:34:11.975Z,9600.00
2018-08-04T11:35:12.021Z,9888.00
2018-08-04T11:36:12.071Z,10020.00
2018-08-04T11:37:12.115Z,10476.00
2018-08-04T11:38:12.162Z,10976.00
2018-08-04T11:39:12.212Z,11156.00
2018-08-04T11:40:12.256Z,11204.00
2018-08-04T11:41:12.306Z,11412.00
2018-08-04T11:42:12.354Z,11520.00
2018-08-04T11:43:12.406Z,11724.00
2018-08-04T11:44:12.448Z,12164.00
2018-08-04T11:45:12.495Z,12752.00
2018-08-04T11:46:12.540Z,13424.00
2018-08-04T11:47:12.589Z,13992.00
2018-08-04T11:48:12.639Z,14284.00
2018-08-04T11:49:12.682Z,14312.00
2018-08-04T11:50:12.730Z,14028.00
2018-08-04T11:51:12.779Z,13672.00
2018-08-04T11:52:12.828Z,13356.00
2018-08-04T11:53:12.874Z,13164.00
2018-08-04T11:54:12.941Z,13072.00
2018-08-04T11:55:12.967Z,13032.00
2018-08-04T11:56:13.013Z,13068.00
2018-08-04T11:57:13.062Z,13112.00
2018-08-04T11:58:13.108Z,13068.00
2018-08-04T11:59:13.158Z,12972.00
2018-08-04T12:00:13.209Z,12956.00
2018-08-04T12:01:13.285Z,13108.00
2018-08-04T12:02:13.299Z,13268.00
2018-08-04T12:03:13.351Z,13404.00
2018-08-04T12:04:13.422Z,13536.00
2018-08-04T12:05:13.442Z,13628.00
2018-08-04T12:06:13.489Z,13564.00
2018-08-04T12:07:13.539Z,13348.00
2018-08-04T12:08:13.585Z,13156.00
2018-08-04T12:09:13.633Z,13128.00
2018-08-04T12:10:13.683Z,13152.00
2018-08-04T12:11:13.736Z,13240.00
2018-08-04T12:12:13.786Z,13396.00
2018-08-04T12:13:13.822Z,13616.00
2018-08-04T12:14:13.871Z,13804.00
2018-08-04T12:15:13.925Z,14076.00
2018-08-04T12:16:13.976Z,14372.00
2018-08-04T12:17:14.017Z,14460.00
2018-08-04T12:18:14.148Z,14440.00